Time,TemperatureF,DewpointF,PressureIn,WindDirection,WindDirectionDegrees,WindSpeedMPH,WindSpeedGustMPH,Humidity,HourlyPrecipIn,Conditions,Clouds,dailyrainin,SoftwareType,DateUTC
2013-11-02 00:01:00,68.6,67.1,29.80,WSW,254,4.6,4.6,95,0.76,RA,,0.01,WeatherDisplay:10.37,2013-11-02 04:01:00,
2013-11-02 00:06:00,68.3,66.8,29.80,SW,230,0.0,0.0,95,0.60,RA,,0.04,WeatherDisplay:10.37,2013-11-02 04:06:00,
2013-11-02 00:11:00,68.1,66.3,29.80,WSW,246,0.0,0.0,94,0.46,RA,,0.07,WeatherDisplay:10.37,2013-11-02 04:11:00,
2013-11-02 00:16:00,67.9,66.4,29.80,WSW,245,0.0,0.0,95,0.43,RA,,0.08,WeatherDisplay:10.37,2013-11-02 04:16:00,
2013-11-02 00:21:00,67.6,66.1,29.80,WSW,243,5.8,5.8,95,0.39,RA,,0.09,WeatherDisplay:10.37,2013-11-02 04:21:00,
2013-11-02 00:26:00,67.4,65.9,29.79,SW,225,0.0,0.0,95,0.32,RA,,0.11,WeatherDisplay:10.37,2013-11-02 04:26:00,
2013-11-02 00:31:00,67.3,65.5,29.79,SW,224,0.0,0.0,94,0.26,RA,,0.11,WeatherDisplay:10.37,2013-11-02 04:31:00,
2013-11-02 00:36:00,67.2,65.7,29.79,SW,225,0.0,0.0,95,0.24,,,0.11,WeatherDisplay:10.37,2013-11-02 04:36:00,
2013-11-02 00:41:00,67.2,65.7,29.78,SW,223,0.0,0.0,95,0.22,CLR,,0.11,WeatherDisplay:10.37,2013-11-02 04:41:00,
2013-11-02 00:46:00,67.1,65.6,29.78,SW,224,0.0,0.0,95,0.21,CLR,,0.11,WeatherDisplay:10.37,2013-11-02 04:46:00,
2013-11-02 00:51:00,67.1,65.6,29.78,SW,225,0.0,0.0,95,0.19,RA,,0.12,WeatherDisplay:10.37,2013-11-02 04:51:00,
2013-11-02 00:56:00,67.0,65.5,29.77,SW,224,0.0,0.0,95,0.16,RA,,0.12,WeatherDisplay:10.37,2013-11-02 04:56:00,
2013-11-02 01:01:00,67.0,65.5,29.77,SW,225,0.0,0.0,95,0.11,,,0.12,WeatherDisplay:10.37,2013-11-02 05:01:00,
2013-11-02 01:06:00,66.9,65.4,29.77,SW,225,0.0,0.0,95,0.08,CLR,,0.12,WeatherDisplay:10.37,2013-11-02 05:06:00,
2013-11-02 01:11:00,66.9,65.4,29.77,SW,225,0.0,0.0,95,0.06,CLR,,0.12,WeatherDisplay:10.37,2013-11-02 05:11:00,
2013-11-02 01:16:00,66.9,65.4,29.78,SW,224,0.0,0.0,95,0.04,CLR,,0.12,WeatherDisplay:10.37,2013-11-02 05:16:00,
2013-11-02 01:21:00,66.9,65.4,29.78,SW,225,0.0,0.0,95,0.03,CLR,,0.12,WeatherDisplay:10.37,2013-11-02 05:21:00,
2013-11-02 01:26:00,66.9,65.4,29.78,SW,225,0.0,0.0,95,0.01,CLR,,0.12,WeatherDisplay:10.37,2013-11-02 05:26:00,
2013-11-02 01:31:00,66.9,65.4,29.78,SW,225,0.0,0.0,95,0.01,CLR,,0.12,WeatherDisplay:10.37,2013-11-02 05:31:00,
2013-11-02 01:36:00,66.9,65.4,29.78,SW,223,0.0,0.0,95,0.01,CLR,,0.12,WeatherDisplay:10.37,2013-11-02 05:36:00,
2013-11-02 01:41:00,66.9,65.4,29.79,WSW,237,3.5,3.5,95,0.01,CLR,,0.12,WeatherDisplay:10.37,2013-11-02 05:41:00,
2013-11-02 01:46:00,66.9,65.4,29.80,SW,236,3.5,0.0,95,0.01,CLR,,0.12,WeatherDisplay:10.37,2013-11-02 05:46:00,
2013-11-02 01:51:00,66.9,65.4,29.80,SW,225,5.0,5.0,95,0.00,CLR,,0.12,WeatherDisplay:10.37,2013-11-02 05:51:00,
2013-11-02 01:56:00,66.9,65.4,29.79,SW,227,3.5,3.5,95,0.00,CLR,,0.12,WeatherDisplay:10.37,2013-11-02 05:56:00,
2013-11-02 02:01:00,66.9,65.4,29.78,SW,227,0.0,0.0,95,0.00,CLR,,0.12,WeatherDisplay:10.37,2013-11-02 06:01:00,
2013-11-02 02:06:00,66.8,65.3,29.77,SW,227,0.0,0.0,95,0.00,CLR,,0.12,WeatherDisplay:10.37,2013-11-02 06:06:00,
2013-11-02 02:11:00,66.8,65.3,29.77,SW,227,0.0,0.0,95,0.00,CLR,,0.12,WeatherDisplay:10.37,2013-11-02 06:11:00,
2013-11-02 02:16:00,66.9,66.9,29.78,SW,227,0.0,0.0,100,0.00,CLR,,0.12,WeatherDisplay:10.37,2013-11-02 06:16:00,
2013-11-02 02:21:00,66.9,66.9,29.77,SW,227,0.0,0.0,100,0.00,CLR,,0.12,WeatherDisplay:10.37,2013-11-02 06:21:00,
2013-11-02 02:26:00,66.9,66.9,29.78,SW,227,0.0,0.0,100,0.00,CLR,,0.12,WeatherDisplay:10.37,2013-11-02 06:26:00,
2013-11-02 02:31:00,66.9,66.9,29.78,SW,227,0.0,0.0,100,0.00,CLR,,0.12,WeatherDisplay:10.37,2013-11-02 06:31:00,
2013-11-02 02:36:00,66.9,66.9,29.78,SW,229,0.0,0.0,100,0.00,CLR,,0.12,WeatherDisplay:10.37,2013-11-02 06:36:00,
2013-11-02 02:41:00,66.9,66.9,29.77,SW,228,0.0,0.0,100,0.00,CLR,,0.12,WeatherDisplay:10.37,2013-11-02 06:41:00,
2013-11-02 02:46:00,66.9,66.9,29.77,SW,227,0.0,0.0,100,0.00,CLR,,0.12,WeatherDisplay:10.37,2013-11-02 06:46:00,
2013-11-02 02:51:00,66.9,66.9,29.77,SW,227,0.0,0.0,100,0.00,CLR,,0.12,WeatherDisplay:10.37,2013-11-02 06:51:00,
2013-11-02 02:56:00,66.8,66.8,29.77,SW,227,0.0,0.0,100,0.00,CLR,,0.12,WeatherDisplay:10.37,2013-11-02 06:56:00,
2013-11-02 03:01:00,66.8,66.8,29.77,SW,228,0.0,0.0,100,0.00,CLR,,0.12,WeatherDisplay:10.37,2013-11-02 07:01:00,
2013-11-02 03:06:00,66.8,66.8,29.77,SW,227,0.0,0.0,100,0.00,CLR,,0.12,WeatherDisplay:10.37,2013-11-02 07:06:00,
2013-11-02 03:11:00,66.8,66.8,29.77,SW,227,0.0,0.0,100,0.00,CLR,,0.12,WeatherDisplay:10.37,2013-11-02 07:11:00,
2013-11-02 03:16:00,66.7,66.7,29.77,SW,228,0.0,0.0,100,0.00,CLR,,0.12,WeatherDisplay:10.37,2013-11-02 07:16:00,
2013-11-02 03:21:00,66.7,66.7,29.78,SW,228,0.0,0.0,100,0.00,CLR,,0.12,WeatherDisplay:10.37,2013-11-02 07:21:00,
2013-11-02 03:26:00,66.7,66.7,29.78,SW,229,0.0,0.0,100,0.00,CLR,,0.12,WeatherDisplay:10.37,2013-11-02 07:26:00,
2013-11-02 03:31:00,66.7,66.7,29.78,SW,227,0.0,0.0,100,0.00,CLR,,0.12,WeatherDisplay:10.37,2013-11-02 07:31:00,
2013-11-02 03:36:00,66.7,66.7,29.78,SW,229,0.0,0.0,100,0.00,CLR,,0.12,WeatherDisplay:10.37,2013-11-02 07:36:00,
2013-11-02 03:41:00,66.7,66.7,29.78,SW,229,0.0,0.0,100,0.00,CLR,,0.12,WeatherDisplay:10.37,2013-11-02 07:41:00,
2013-11-02 03:46:00,66.8,66.8,29.77,SW,228,0.0,0.0,100,0.00,CLR,,0.12,WeatherDisplay:10.37,2013-11-02 07:46:00,
2013-11-02 03:51:00,66.8,66.8,29.77,WSW,254,0.0,0.0,100,0.00,CLR,,0.12,WeatherDisplay:10.37,2013-11-02 07:51:00,
2013-11-02 03:56:00,66.9,66.9,29.77,WSW,257,0.0,0.0,100,0.00,CLR,,0.12,WeatherDisplay:10.37,2013-11-02 07:56:00,
2013-11-02 04:01:00,66.9,66.9,29.77,WSW,258,0.0,0.0,100,0.00,CLR,,0.12,WeatherDisplay:10.37,2013-11-02 08:01:00,
2013-11-02 04:06:00,66.8,66.8,29.77,West,265,0.0,0.0,100,0.00,CLR,,0.12,WeatherDisplay:10.37,2013-11-02 08:06:00,
2013-11-02 04:11:00,66.8,66.8,29.78,WNW,291,0.0,0.0,100,0.00,CLR,,0.12,WeatherDisplay:10.37,2013-11-02 08:11:00,
2013-11-02 04:16:00,66.7,66.7,29.78,West,279,1.2,0.0,100,0.00,CLR,,0.12,WeatherDisplay:10.37,2013-11-02 08:16:00,
2013-11-02 04:21:00,66.6,66.6,29.78,WNW,286,3.5,3.5,100,0.00,CLR,,0.12,WeatherDisplay:10.37,2013-11-02 08:21:00,
2013-11-02 04:26:00,66.5,66.5,29.78,West,281,1.2,0.0,100,0.00,CLR,,0.12,WeatherDisplay:10.37,2013-11-02 08:26:00,
2013-11-02 04:31:00,66.3,66.3,29.77,NW,313,3.5,0.0,100,0.00,CLR,,0.12,WeatherDisplay:10.37,2013-11-02 08:31:00,
2013-11-02 04:36:00,66.2,66.2,29.78,NW,313,0.0,0.0,100,0.00,CLR,,0.12,WeatherDisplay:10.37,2013-11-02 08:36:00,
2013-11-02 04:41:00,66.1,66.1,29.78,NW,313,0.0,0.0,100,0.00,CLR,,0.12,WeatherDisplay:10.37,2013-11-02 08:41:00,
2013-11-02 04:46:00,66.0,66.0,29.78,NW,313,3.5,3.5,100,0.00,CLR,,0.12,WeatherDisplay:10.37,2013-11-02 08:46:00,
2013-11-02 04:51:00,65.9,65.9,29.79,NW,313,0.0,0.0,100,0.00,CLR,,0.12,WeatherDisplay:10.37,2013-11-02 08:51:00,
2013-11-02 04:56:00,65.8,65.8,29.78,NW,313,0.0,0.0,100,0.00,CLR,,0.12,WeatherDisplay:10.37,2013-11-02 08:56:00,
2013-11-02 05:01:00,65.7,65.7,29.78,NW,313,0.0,0.0,100,0.00,CLR,,0.12,WeatherDisplay:10.37,2013-11-02 09:01:00,
2013-11-02 05:06:00,65.7,65.7,29.78,NW,314,0.0,0.0,100,0.00,CLR,,0.12,WeatherDisplay:10.37,2013-11-02 09:06:00,
2013-11-02 05:11:00,65.6,65.6,29.79,NW,313,0.0,0.0,100,0.00,CLR,,0.12,WeatherDisplay:10.37,2013-11-02 09:11:00,
2013-11-02 05:16:00,65.5,65.5,29.79,West,276,3.5,0.0,100,0.00,CLR,,0.12,WeatherDisplay:10.37,2013-11-02 09:16:00,
2013-11-02 05:21:00,65.3,65.3,29.80,West,277,0.0,0.0,100,0.00,CLR,,0.12,WeatherDisplay:10.37,2013-11-02 09:21:00,
2013-11-02 05:26:00,65.2,65.2,29.79,West,277,0.0,0.0,100,0.00,CLR,,0.12,WeatherDisplay:10.37,2013-11-02 09:26:00,
2013-11-02 05:31:00,65.2,65.2,29.79,West,277,0.0,0.0,100,0.00,CLR,,0.12,WeatherDisplay:10.37,2013-11-02 09:31:00,
2013-11-02 05:36:00,65.0,65.0,29.79,West,277,0.0,0.0,100,0.00,CLR,,0.12,WeatherDisplay:10.37,2013-11-02 09:36:00,
2013-11-02 05:41:00,64.9,64.9,29.79,West,277,0.0,0.0,100,0.00,CLR,,0.12,WeatherDisplay:10.37,2013-11-02 09:41:00,
2013-11-02 05:46:00,64.8,64.8,29.79,West,277,0.0,0.1,100,0.00,CLR,,0.12,WeatherDisplay:10.37,2013-11-02 09:46:00,
2013-11-02 05:51:00,64.7,64.7,29.80,WNW,286,3.0,3.0,100,0.00,CLR,,0.12,WeatherDisplay:10.37,2013-11-02 09:51:00,
2013-11-02 05:56:00,64.6,64.6,29.80,West,267,0.0,0.0,100,0.00,CLR,,0.12,WeatherDisplay:10.37,2013-11-02 09:56:00,
2013-11-02 06:01:00,64.5,64.5,29.81,West,265,0.0,0.0,100,0.00,CLR,,0.12,WeatherDisplay:10.37,2013-11-02 10:01:00,
2013-11-02 06:06:00,64.5,64.5,29.81,West,267,0.0,0.0,100,0.00,CLR,,0.12,WeatherDisplay:10.37,2013-11-02 10:06:00,
2013-11-02 06:11:00,64.4,64.4,29.81,West,267,1.2,0.0,100,0.00,CLR,,0.12,WeatherDisplay:10.37,2013-11-02 10:11:00,
2013-11-02 06:16:00,64.4,64.4,29.81,West,267,0.0,0.0,100,0.00,CLR,,0.12,WeatherDisplay:10.37,2013-11-02 10:16:00,
2013-11-02 06:21:00,64.4,64.4,29.81,West,267,0.0,0.0,100,0.00,CLR,,0.12,WeatherDisplay:10.37,2013-11-02 10:21:00,
2013-11-02 06:26:00,64.3,64.3,29.81,West,267,0.0,0.0,100,0.00,CLR,,0.12,WeatherDisplay:10.37,2013-11-02 10:26:00,
2013-11-02 06:31:00,64.3,64.3,29.81,West,266,0.0,0.0,100,0.00,CLR,,0.12,WeatherDisplay:10.37,2013-11-02 10:31:00,
2013-11-02 06:36:00,64.3,64.3,29.81,West,267,0.0,0.0,100,0.00,CLR,,0.12,WeatherDisplay:10.37,2013-11-02 10:36:00,
2013-11-02 06:41:00,64.3,64.3,29.81,West,267,0.0,0.0,100,0.00,CLR,,0.12,WeatherDisplay:10.37,2013-11-02 10:41:00,
2013-11-02 06:46:00,64.2,64.2,29.81,West,266,0.0,0.0,100,0.00,CLR,,0.12,WeatherDisplay:10.37,2013-11-02 10:46:00,
2013-11-02 06:51:00,64.2,64.2,29.81,West,266,0.0,0.0,100,0.00,CLR,,0.12,WeatherDisplay:10.37,2013-11-02 10:51:00,
2013-11-02 06:56:00,64.1,64.1,29.81,West,265,0.0,0.0,100,0.00,CLR,,0.12,WeatherDisplay:10.37,2013-11-02 10:56:00,
2013-11-02 07:01:00,64.0,64.0,29.81,West,267,1.2,0.0,100,0.00,CLR,,0.12,WeatherDisplay:10.37,2013-11-02 11:01:00,
2013-11-02 07:06:00,64.0,64.0,29.82,West,270,2.0,2.0,100,0.00,CLR,,0.12,WeatherDisplay:10.37,2013-11-02 11:06:00,
2013-11-02 07:11:00,63.9,63.9,29.82,West,269,0.0,0.0,100,0.00,CLR,,0.12,WeatherDisplay:10.37,2013-11-02 11:11:00,
2013-11-02 07:16:00,63.8,63.8,29.83,West,268,1.0,1.0,100,0.00,CLR,,0.12,WeatherDisplay:10.37,2013-11-02 11:16:00,
2013-11-02 07:21:00,63.7,63.7,29.83,West,271,1.2,1.2,100,0.00,CLR,,0.12,WeatherDisplay:10.37,2013-11-02 11:21:00,
2013-11-02 07:26:00,63.7,63.7,29.84,West,272,4.6,4.6,100,0.00,CLR,,0.12,WeatherDisplay:10.37,2013-11-02 11:26:00,
2013-11-02 07:31:00,63.6,63.6,29.84,West,272,3.5,3.5,100,0.00,CLR,,0.12,WeatherDisplay:10.37,2013-11-02 11:31:00,
2013-11-02 07:36:00,63.5,63.5,29.85,West,272,0.0,0.0,100,0.00,CLR,,0.12,WeatherDisplay:10.37,2013-11-02 11:36:00,
2013-11-02 07:41:00,63.5,63.5,29.85,West,273,0.0,0.0,100,0.00,CLR,,0.12,WeatherDisplay:10.37,2013-11-02 11:41:00,
2013-11-02 07:46:00,63.4,63.4,29.85,West,273,0.0,0.0,100,0.00,CLR,,0.12,WeatherDisplay:10.37,2013-11-02 11:46:00,
2013-11-02 07:51:00,63.4,63.4,29.85,West,272,0.0,0.0,100,0.00,CLR,,0.12,WeatherDisplay:10.37,2013-11-02 11:51:00,
2013-11-02 07:56:00,63.3,63.3,29.85,West,272,0.0,0.0,100,0.00,CLR,,0.12,WeatherDisplay:10.37,2013-11-02 11:56:00,
2013-11-02 08:01:00,63.3,63.3,29.85,West,271,0.0,0.0,100,0.00,CLR,,0.12,WeatherDisplay:10.37,2013-11-02 12:01:00,
2013-11-02 08:06:00,63.3,63.3,29.85,West,271,0.0,0.0,100,0.00,CLR,,0.12,WeatherDisplay:10.37,2013-11-02 12:06:00,
2013-11-02 08:11:00,63.2,63.2,29.84,West,273,0.0,0.0,100,0.00,CLR,,0.12,WeatherDisplay:10.37,2013-11-02 12:11:00,
2013-11-02 08:16:00,63.1,63.1,29.85,West,272,0.0,0.0,100,0.00,CLR,,0.12,WeatherDisplay:10.37,2013-11-02 12:16:00,
2013-11-02 08:21:00,63.1,63.1,29.85,West,272,0.0,0.0,100,0.00,CLR,,0.12,WeatherDisplay:10.37,2013-11-02 12:21:00,
2013-11-02 08:26:00,63.0,63.0,29.85,West,272,0.0,0.0,100,0.00,CLR,,0.12,WeatherDisplay:10.37,2013-11-02 12:26:00,
2013-11-02 08:31:00,62.9,62.9,29.85,West,272,0.0,0.0,100,0.00,CLR,,0.12,WeatherDisplay:10.37,2013-11-02 12:31:00,
2013-11-02 08:36:00,62.9,61.4,29.85,West,272,0.0,0.0,95,0.00,CLR,,0.12,WeatherDisplay:10.37,2013-11-02 12:36:00,
2013-11-02 08:41:00,62.9,61.4,29.85,WNW,295,0.0,0.0,95,0.00,CLR,,0.12,WeatherDisplay:10.37,2013-11-02 12:41:00,
2013-11-02 08:46:00,62.8,61.3,29.85,WSW,245,0.0,0.0,95,0.00,CLR,,0.12,WeatherDisplay:10.37,2013-11-02 12:46:00,
2013-11-02 08:51:00,62.8,62.8,29.85,WSW,244,0.0,0.0,100,0.00,CLR,,0.12,WeatherDisplay:10.37,2013-11-02 12:51:00,
2013-11-02 08:56:00,62.8,62.8,29.85,WSW,244,1.2,0.0,100,0.00,CLR,,0.12,WeatherDisplay:10.37,2013-11-02 12:56:00,
2013-11-02 09:01:00,62.8,62.8,29.86,WSW,245,0.0,0.0,100,0.00,CLR,,0.12,WeatherDisplay:10.37,2013-11-02 13:01:00,
2013-11-02 09:06:00,62.8,62.8,29.86,WSW,244,0.0,0.0,100,0.00,CLR,,0.12,WeatherDisplay:10.37,2013-11-02 13:06:00,
2013-11-02 09:11:00,62.8,62.8,29.86,WSW,246,0.0,0.0,100,0.00,CLR,,0.12,WeatherDisplay:10.37,2013-11-02 13:11:00,
2013-11-02 09:16:00,62.8,62.8,29.86,WSW,244,0.0,0.0,100,0.00,CLR,,0.12,WeatherDisplay:10.37,2013-11-02 13:16:00,
2013-11-02 09:21:00,62.8,62.8,29.86,WSW,246,1.0,1.0,100,0.00,CLR,,0.12,WeatherDisplay:10.37,2013-11-02 13:21:00,
2013-11-02 09:26:00,62.8,62.8,29.86,WSW,244,0.0,0.0,100,0.00,CLR,,0.12,WeatherDisplay:10.37,2013-11-02 13:26:00,
2013-11-02 09:31:00,62.8,62.8,29.86,WSW,246,0.0,0.0,100,0.00,CLR,,0.12,WeatherDisplay:10.37,2013-11-02 13:31:00,
2013-11-02 09:36:00,62.7,61.2,29.86,WSW,252,0.0,0.0,95,0.00,CLR,,0.12,WeatherDisplay:10.37,2013-11-02 13:36:00,
2013-11-02 09:41:00,62.5,61.0,29.87,West,269,4.6,4.6,95,0.00,CLR,,0.12,WeatherDisplay:10.37,2013-11-02 13:41:00,
2013-11-02 09:46:00,62.5,61.0,29.87,West,268,1.2,1.2,95,0.00,CLR,,0.12,WeatherDisplay:10.37,2013-11-02 13:46:00,
2013-11-02 09:51:00,62.6,61.1,29.87,West,269,2.0,2.0,95,0.00,CLR,,0.12,WeatherDisplay:10.37,2013-11-02 13:51:00,
2013-11-02 09:56:00,62.7,61.2,29.88,WNW,283,2.3,0.0,95,0.00,CLR,,0.12,WeatherDisplay:10.37,2013-11-02 13:56:00,
2013-11-02 10:01:00,62.7,61.2,29.88,WNW,283,0.0,0.0,95,0.00,CLR,,0.12,WeatherDisplay:10.37,2013-11-02 14:01:00,
2013-11-02 10:06:00,62.8,61.3,29.88,WNW,282,1.2,0.0,95,0.00,CLR,,0.12,WeatherDisplay:10.37,2013-11-02 14:06:00,
2013-11-02 10:11:00,62.9,61.4,29.87,WNW,283,0.0,0.0,95,0.00,CLR,,0.12,WeatherDisplay:10.37,2013-11-02 14:11:00,
2013-11-02 10:16:00,62.9,61.1,29.87,NW,316,0.0,0.0,94,0.00,CLR,,0.12,WeatherDisplay:10.37,2013-11-02 14:16:00,
2013-11-02 10:21:00,63.0,61.2,29.87,WNW,284,2.3,2.3,94,0.00,CLR,,0.12,WeatherDisplay:10.37,2013-11-02 14:21:00,
2013-11-02 10:26:00,63.0,60.9,29.87,NW,310,0.0,0.8,93,0.00,CLR,,0.12,WeatherDisplay:10.37,2013-11-02 14:26:00,
2013-11-02 10:31:00,63.1,60.7,29.87,NW,309,2.3,0.0,92,0.00,CLR,,0.12,WeatherDisplay:10.37,2013-11-02 14:31:00,
2013-11-02 10:36:00,63.0,60.3,29.87,WNW,302,3.5,3.5,91,0.00,CLR,,0.12,WeatherDisplay:10.37,2013-11-02 14:36:00,
2013-11-02 10:41:00,63.1,60.4,29.87,West,268,2.3,2.3,91,0.00,CLR,,0.12,WeatherDisplay:10.37,2013-11-02 14:41:00,
2013-11-02 10:46:00,63.2,60.2,29.87,West,275,0.0,0.0,90,0.00,CLR,,0.12,WeatherDisplay:10.37,2013-11-02 14:46:00,
2013-11-02 10:51:00,63.6,60.6,29.87,WNW,296,6.9,6.9,90,0.00,CLR,,0.12,WeatherDisplay:10.37,2013-11-02 14:51:00,
2013-11-02 10:56:00,64.2,60.6,29.88,NW,307,0.0,0.0,88,0.00,CLR,,0.12,WeatherDisplay:10.37,2013-11-02 14:56:00,
2013-11-02 11:01:00,64.7,60.1,29.88,NW,306,6.9,6.9,85,0.00,CLR,,0.12,WeatherDisplay:10.37,2013-11-02 15:01:00,
2013-11-02 11:06:00,65.1,59.5,29.89,WSW,253,8.1,8.1,82,0.00,CLR,,0.12,WeatherDisplay:10.37,2013-11-02 15:06:00,
2013-11-02 11:11:00,65.9,59.6,29.89,West,273,6.9,6.9,80,0.00,CLR,,0.12,WeatherDisplay:10.37,2013-11-02 15:11:00,
2013-11-02 11:16:00,66.9,59.8,29.88,NW,310,5.8,5.8,78,0.00,CLR,,0.12,WeatherDisplay:10.37,2013-11-02 15:16:00,
2013-11-02 11:21:00,67.7,59.5,29.88,WNW,294,8.1,8.1,75,0.00,CLR,,0.12,WeatherDisplay:10.37,2013-11-02 15:21:00,
2013-11-02 11:26:00,68.3,59.3,29.89,NNW,327,10.0,10.0,73,0.00,CLR,,0.12,WeatherDisplay:10.37,2013-11-02 15:26:00,
2013-11-02 11:31:00,68.4,59.0,29.88,WNW,297,6.9,6.9,72,0.00,CLR,,0.12,WeatherDisplay:10.37,2013-11-02 15:31:00,
2013-11-02 11:36:00,68.3,58.1,29.88,WNW,296,4.6,0.0,70,0.00,CLR,,0.12,WeatherDisplay:10.37,2013-11-02 15:36:00,
2013-11-02 11:41:00,68.3,57.7,29.88,West,269,8.1,8.1,69,0.00,CLR,,0.12,WeatherDisplay:10.37,2013-11-02 15:41:00,
2013-11-02 11:46:00,68.2,57.2,29.88,NW,306,6.9,6.9,68,0.00,CLR,,0.12,WeatherDisplay:10.37,2013-11-02 15:46:00,
2013-11-02 11:51:00,68.1,57.1,29.89,WNW,295,5.8,5.8,68,0.00,CLR,,0.12,WeatherDisplay:10.37,2013-11-02 15:51:00,
2013-11-02 11:56:00,68.2,57.2,29.89,West,280,5.8,5.8,68,0.00,CLR,,0.12,WeatherDisplay:10.37,2013-11-02 15:56:00,
2013-11-02 12:01:00,68.1,56.7,29.88,NW,304,6.9,6.9,67,0.00,CLR,,0.12,WeatherDisplay:10.37,2013-11-02 16:01:00,
2013-11-02 12:07:00,68.0,56.6,29.88,NW,325,6.0,6.0,67,0.00,CLR,,0.12,WeatherDisplay:10.37,2013-11-02 16:07:00,
2013-11-02 12:12:00,67.9,56.5,29.88,WNW,294,1.2,1.2,67,0.00,CLR,,0.12,WeatherDisplay:10.37,2013-11-02 16:12:00,
2013-11-02 12:17:00,67.9,56.9,29.89,WNW,299,4.6,4.6,68,0.00,CLR,,0.12,WeatherDisplay:10.37,2013-11-02 16:17:00,
2013-11-02 12:22:00,67.9,56.9,29.88,WNW,301,0.0,0.0,68,0.00,CLR,,0.12,WeatherDisplay:10.37,2013-11-02 16:22:00,
2013-11-02 12:27:00,68.0,57.4,29.88,WNW,301,3.0,3.0,69,0.00,CLR,,0.12,WeatherDisplay:10.37,2013-11-02 16:27:00,
2013-11-02 12:32:00,68.1,57.9,29.88,WNW,299,0.0,0.0,70,0.00,CLR,,0.12,WeatherDisplay:10.37,2013-11-02 16:32:00,
2013-11-02 12:37:00,68.4,58.2,29.88,WNW,299,0.0,0.0,70,0.00,CLR,,0.12,WeatherDisplay:10.37,2013-11-02 16:37:00,
2013-11-02 12:42:00,68.6,58.0,29.89,WNW,296,0.0,0.0,69,0.00,CLR,,0.12,WeatherDisplay:10.37,2013-11-02 16:42:00,
2013-11-02 12:47:00,68.7,58.1,29.89,WNW,296,3.5,3.5,69,0.00,CLR,,0.12,WeatherDisplay:10.37,2013-11-02 16:47:00,
2013-11-02 12:52:00,68.5,57.9,29.88,West,276,5.8,5.8,69,0.00,CLR,,0.12,WeatherDisplay:10.37,2013-11-02 16:52:00,
2013-11-02 12:57:00,68.4,57.4,29.88,WNW,282,5.8,5.8,68,0.00,CLR,,0.12,WeatherDisplay:10.37,2013-11-02 16:57:00,
2013-11-02 13:02:00,68.4,57.4,29.87,WNW,282,2.3,2.3,68,0.00,CLR,,0.12,WeatherDisplay:10.37,2013-11-02 17:02:00,
2013-11-02 13:07:00,68.3,57.7,29.88,WNW,284,5.8,5.8,69,0.00,CLR,,0.12,WeatherDisplay:10.37,2013-11-02 17:07:00,
2013-11-02 13:12:00,68.2,57.2,29.87,WNW,283,1.2,0.0,68,0.00,CLR,,0.12,WeatherDisplay:10.37,2013-11-02 17:12:00,
2013-11-02 13:17:00,68.2,57.2,29.86,WNW,284,1.2,0.0,68,0.00,CLR,,0.12,WeatherDisplay:10.37,2013-11-02 17:17:00,
2013-11-02 13:22:00,68.3,57.7,29.86,WNW,284,0.0,0.0,69,0.00,CLR,,0.12,WeatherDisplay:10.37,2013-11-02 17:22:00,
2013-11-02 13:27:00,68.4,57.4,29.86,West,281,3.5,3.5,68,0.00,CLR,,0.12,WeatherDisplay:10.37,2013-11-02 17:27:00,
2013-11-02 13:32:00,68.3,57.3,29.85,WNW,286,3.5,3.5,68,0.00,CLR,,0.12,WeatherDisplay:10.37,2013-11-02 17:32:00,
2013-11-02 13:37:00,68.4,58.2,29.86,WNW,286,5.0,5.0,70,0.00,CLR,,0.12,WeatherDisplay:10.37,2013-11-02 17:37:00,
2013-11-02 13:42:00,68.4,58.2,29.86,WNW,286,5.8,5.8,70,0.00,CLR,,0.12,WeatherDisplay:10.37,2013-11-02 17:42:00,
2013-11-02 13:47:00,68.3,58.5,29.85,WNW,284,0.0,0.0,71,0.00,CLR,,0.12,WeatherDisplay:10.37,2013-11-02 17:47:00,
2013-11-02 13:52:00,68.4,58.6,29.84,West,279,4.0,4.0,71,0.00,CLR,,0.12,WeatherDisplay:10.37,2013-11-02 17:52:00,
2013-11-02 13:57:00,69.1,58.9,29.84,WNW,283,4.6,4.6,70,0.00,CLR,,0.12,WeatherDisplay:10.37,2013-11-02 17:57:00,
2013-11-02 14:02:00,70.1,58.6,29.84,NW,306,6.9,6.9,67,0.00,CLR,,0.12,WeatherDisplay:10.37,2013-11-02 18:02:00,
2013-11-02 14:07:00,70.8,56.7,29.84,WNW,294,10.4,10.4,61,0.00,CLR,,0.12,WeatherDisplay:10.37,2013-11-02 18:07:00,
2013-11-02 14:12:00,70.9,54.9,29.84,West,276,8.1,8.1,57,0.00,CLR,,0.12,WeatherDisplay:10.37,2013-11-02 18:12:00,
2013-11-02 14:17:00,71.3,55.3,29.84,West,271,10.4,10.4,57,0.00,CLR,,0.12,WeatherDisplay:10.37,2013-11-02 18:17:00,
2013-11-02 14:22:00,71.8,54.8,29.84,West,268,8.1,8.1,55,0.00,CLR,,0.12,WeatherDisplay:10.37,2013-11-02 18:22:00,
2013-11-02 14:27:00,72.4,54.3,29.83,West,264,9.2,9.2,53,0.00,CLR,,0.12,WeatherDisplay:10.37,2013-11-02 18:27:00,
2013-11-02 14:32:00,72.3,53.7,29.83,WNW,290,11.5,11.5,52,0.00,CLR,,0.12,WeatherDisplay:10.37,2013-11-02 18:32:00,
2013-11-02 14:37:00,72.2,52.5,29.83,West,279,10.4,10.4,50,0.00,CLR,,0.12,WeatherDisplay:10.37,2013-11-02 18:37:00,
2013-11-02 14:42:00,72.4,53.8,29.83,West,279,4.6,4.6,52,0.00,CLR,,0.12,WeatherDisplay:10.37,2013-11-02 18:42:00,
2013-11-02 14:47:00,72.7,53.0,29.83,WNW,285,11.0,11.0,50,0.00,CLR,,0.12,WeatherDisplay:10.37,2013-11-02 18:47:00,
2013-11-02 14:52:00,72.6,51.8,29.83,West,267,11.5,11.5,48,0.00,CLR,,0.12,WeatherDisplay:10.37,2013-11-02 18:52:00,
2013-11-02 14:57:00,72.5,52.8,29.83,West,273,8.1,8.1,50,0.00,CLR,,0.12,WeatherDisplay:10.37,2013-11-02 18:57:00,
2013-11-02 15:02:00,72.6,52.3,29.83,NW,306,11.5,11.5,49,0.00,CLR,,0.12,WeatherDisplay:10.37,2013-11-02 19:02:00,
2013-11-02 15:07:00,72.7,53.5,29.83,WNW,283,6.0,6.0,51,0.00,CLR,,0.12,WeatherDisplay:10.37,2013-11-02 19:07:00,
2013-11-02 15:12:00,72.9,53.2,29.83,NW,321,5.8,5.8,50,0.00,CLR,,0.12,WeatherDisplay:10.37,2013-11-02 19:12:00,
2013-11-02 15:17:00,73.3,53.5,29.83,NNW,335,6.9,6.9,50,0.00,CLR,,0.12,WeatherDisplay:10.37,2013-11-02 19:17:00,
2013-11-02 15:22:00,73.4,53.1,29.82,WNW,287,9.2,9.2,49,0.00,CLR,,0.12,WeatherDisplay:10.37,2013-11-02 19:22:00,
2013-11-02 15:27:00,73.5,53.2,29.82,NNW,337,5.0,5.0,49,0.00,CLR,,0.12,WeatherDisplay:10.37,2013-11-02 19:27:00,
2013-11-02 15:32:00,73.4,51.9,29.82,West,265,11.5,11.5,47,0.00,CLR,,0.12,WeatherDisplay:10.37,2013-11-02 19:32:00,
2013-11-02 15:37:00,73.5,52.0,29.82,WNW,283,12.7,12.7,47,0.00,CLR,,0.12,WeatherDisplay:10.37,2013-11-02 19:37:00,
2013-11-02 15:42:00,73.4,52.5,29.83,West,276,11.5,11.5,48,0.00,CLR,,0.12,WeatherDisplay:10.37,2013-11-02 19:42:00,
2013-11-02 15:47:00,73.4,52.5,29.82,WNW,295,6.9,6.9,48,0.00,CLR,,0.12,WeatherDisplay:10.37,2013-11-02 19:47:00,
2013-11-02 15:52:00,73.6,53.3,29.82,WNW,282,8.1,8.1,49,0.00,CLR,,0.12,WeatherDisplay:10.37,2013-11-02 19:52:00,
2013-11-02 15:57:00,73.7,53.9,29.83,WNW,291,6.0,6.0,50,0.00,CLR,,0.12,WeatherDisplay:10.37,2013-11-02 19:57:00,
2013-11-02 16:02:00,73.7,54.4,29.82,WNW,288,3.5,3.5,51,0.00,CLR,,0.12,WeatherDisplay:10.37,2013-11-02 20:02:00,
2013-11-02 16:07:00,73.8,54.5,29.82,WNW,294,9.2,9.2,51,0.00,CLR,,0.12,WeatherDisplay:10.37,2013-11-02 20:07:00,
2013-11-02 16:12:00,73.8,55.1,29.82,West,277,9.2,9.2,52,0.00,CLR,,0.12,WeatherDisplay:10.37,2013-11-02 20:12:00,
2013-11-02 16:17:00,73.6,54.9,29.82,WNW,300,9.2,9.2,52,0.00,CLR,,0.12,WeatherDisplay:10.37,2013-11-02 20:17:00,
2013-11-02 16:22:00,73.5,55.3,29.82,WNW,291,6.9,6.9,53,0.00,CLR,,0.12,WeatherDisplay:10.37,2013-11-02 20:22:00,
2013-11-02 16:27:00,73.5,55.3,29.82,NW,307,3.5,3.5,53,0.00,CLR,,0.12,WeatherDisplay:10.37,2013-11-02 20:27:00,
2013-11-02 16:32:00,73.5,55.3,29.82,West,267,10.4,10.4,53,0.00,CLR,,0.12,WeatherDisplay:10.37,2013-11-02 20:32:00,
2013-11-02 16:37:00,73.4,55.2,29.82,WNW,295,6.9,6.9,53,0.00,CLR,,0.12,WeatherDisplay:10.37,2013-11-02 20:37:00,
2013-11-02 16:42:00,73.3,55.1,29.83,WNW,288,3.5,3.5,53,0.00,CLR,,0.12,WeatherDisplay:10.37,2013-11-02 20:42:00,
2013-11-02 16:47:00,73.3,55.1,29.83,NW,306,5.8,5.8,53,0.00,CLR,,0.12,WeatherDisplay:10.37,2013-11-02 20:47:00,
2013-11-02 16:52:00,73.3,54.6,29.83,NW,311,5.8,5.8,52,0.00,CLR,,0.12,WeatherDisplay:10.37,2013-11-02 20:52:00,
2013-11-02 16:57:00,73.3,54.6,29.83,WNW,299,4.0,4.0,52,0.00,CLR,,0.12,WeatherDisplay:10.37,2013-11-02 20:57:00,
2013-11-02 17:02:00,73.3,54.6,29.83,NW,304,4.6,4.6,52,0.00,CLR,,0.12,WeatherDisplay:10.37,2013-11-02 21:02:00,
2013-11-02 17:07:00,73.3,54.6,29.83,West,277,3.5,3.5,52,0.00,CLR,,0.12,WeatherDisplay:10.37,2013-11-02 21:07:00,
2013-11-02 17:12:00,73.1,54.4,29.83,West,281,8.1,8.1,52,0.00,CLR,,0.12,WeatherDisplay:10.37,2013-11-02 21:12:00,
2013-11-02 17:17:00,73.0,54.3,29.83,WNW,291,3.5,3.5,52,0.00,CLR,,0.12,WeatherDisplay:10.37,2013-11-02 21:17:00,
2013-11-02 17:22:00,72.8,53.6,29.83,WNW,300,4.6,4.6,51,0.00,CLR,,0.12,WeatherDisplay:10.37,2013-11-02 21:22:00,
2013-11-02 17:27:00,72.6,54.0,29.83,WSW,256,0.0,0.0,52,0.00,CLR,,0.12,WeatherDisplay:10.37,2013-11-02 21:27:00,
2013-11-02 17:32:00,72.3,54.7,29.83,WSW,256,0.0,0.0,54,0.00,CLR,,0.12,WeatherDisplay:10.37,2013-11-02 21:32:00,
2013-11-02 17:37:00,72.1,55.0,29.83,WSW,257,1.0,0.0,55,0.00,CLR,,0.12,WeatherDisplay:10.37,2013-11-02 21:37:00,
2013-11-02 17:42:00,71.7,54.7,29.83,WSW,257,0.0,0.0,55,0.00,CLR,,0.12,WeatherDisplay:10.37,2013-11-02 21:42:00,
2013-11-02 17:47:00,71.4,54.9,29.84,West,259,1.2,0.0,56,0.00,CLR,,0.12,WeatherDisplay:10.37,2013-11-02 21:47:00,
2013-11-02 17:52:00,71.1,56.0,29.84,West,271,0.0,0.0,59,0.00,CLR,,0.12,WeatherDisplay:10.37,2013-11-02 21:52:00,
2013-11-02 17:57:00,70.8,55.3,29.84,WSW,238,0.0,0.0,58,0.00,CLR,,0.12,WeatherDisplay:10.37,2013-11-02 21:57:00,
2013-11-02 18:02:00,70.6,55.6,29.84,SW,214,0.0,0.0,59,0.00,CLR,,0.12,WeatherDisplay:10.37,2013-11-02 22:02:00,
2013-11-02 18:07:00,70.3,56.2,29.84,SW,215,0.0,0.0,61,0.00,CLR,,0.12,WeatherDisplay:10.37,2013-11-02 22:07:00,
2013-11-02 18:12:00,70.0,56.4,29.84,SW,214,0.0,0.0,62,0.00,CLR,,0.12,WeatherDisplay:10.37,2013-11-02 22:12:00,
2013-11-02 18:17:00,69.5,56.8,29.85,NW,321,0.0,0.0,64,0.00,CLR,,0.12,WeatherDisplay:10.37,2013-11-02 22:17:00,
2013-11-02 18:22:00,69.2,56.9,29.85,NW,321,0.0,0.0,65,0.00,CLR,,0.12,WeatherDisplay:10.37,2013-11-02 22:22:00,
2013-11-02 18:27:00,68.8,57.0,29.85,NW,321,0.0,0.0,66,0.00,CLR,,0.12,WeatherDisplay:10.37,2013-11-02 22:27:00,
2013-11-02 18:32:00,68.2,56.8,29.85,NW,321,0.0,0.0,67,0.00,CLR,,0.12,WeatherDisplay:10.37,2013-11-02 22:32:00,
2013-11-02 18:37:00,67.7,56.3,29.85,NW,321,0.0,0.0,67,0.00,CLR,,0.12,WeatherDisplay:10.37,2013-11-02 22:37:00,
2013-11-02 18:42:00,67.0,56.5,29.86,NW,321,0.0,0.0,69,0.00,CLR,,0.12,WeatherDisplay:10.37,2013-11-02 22:42:00,
2013-11-02 18:47:00,66.4,55.9,29.86,NW,321,0.0,0.0,69,0.00,CLR,,0.12,WeatherDisplay:10.37,2013-11-02 22:47:00,
2013-11-02 18:52:00,65.8,55.7,29.86,NW,321,0.0,0.0,70,0.00,CLR,,0.12,WeatherDisplay:10.37,2013-11-02 22:52:00,
2013-11-02 18:57:00,65.2,55.6,29.86,NW,321,0.0,0.0,71,0.00,CLR,,0.12,WeatherDisplay:10.37,2013-11-02 22:57:00,
2013-11-02 19:02:00,64.8,55.6,29.87,NW,321,0.0,0.0,72,0.00,CLR,,0.12,WeatherDisplay:10.37,2013-11-02 23:02:00,
2013-11-02 19:07:00,64.4,55.6,29.87,NW,321,0.0,0.0,73,0.00,CLR,,0.12,WeatherDisplay:10.37,2013-11-02 23:07:00,
2013-11-02 19:12:00,63.8,55.4,29.87,NW,321,0.0,0.0,74,0.00,CLR,,0.12,WeatherDisplay:10.37,2013-11-02 23:12:00,
2013-11-02 19:17:00,63.4,55.3,29.87,NW,321,0.0,0.0,75,0.00,CLR,,0.12,WeatherDisplay:10.37,2013-11-02 23:17:00,
2013-11-02 19:22:00,63.0,55.3,29.88,NW,321,0.0,0.0,76,0.00,CLR,,0.12,WeatherDisplay:10.37,2013-11-02 23:22:00,
2013-11-02 19:27:00,62.6,54.9,29.88,NW,321,0.0,0.0,76,0.00,CLR,,0.12,WeatherDisplay:10.37,2013-11-02 23:27:00,
2013-11-02 19:32:00,62.2,54.9,29.88,NW,321,0.0,0.0,77,0.00,CLR,,0.12,WeatherDisplay:10.37,2013-11-02 23:32:00,
2013-11-02 19:37:00,61.8,54.9,29.89,NW,321,0.0,0.0,78,0.00,CLR,,0.12,WeatherDisplay:10.37,2013-11-02 23:37:00,
2013-11-02 19:42:00,61.4,54.8,29.89,NW,321,0.0,0.0,79,0.00,CLR,,0.12,WeatherDisplay:10.37,2013-11-02 23:42:00,
2013-11-02 19:47:00,61.1,54.9,29.89,NW,321,0.0,0.0,80,0.00,CLR,,0.12,WeatherDisplay:10.37,2013-11-02 23:47:00,
2013-11-02 19:52:00,60.9,55.0,29.89,NW,321,0.0,0.0,81,0.00,CLR,,0.12,WeatherDisplay:10.37,2013-11-02 23:52:00,
2013-11-02 19:57:00,60.6,54.7,29.89,NW,321,0.0,0.0,81,0.00,CLR,,0.12,WeatherDisplay:10.37,2013-11-02 23:57:00,
2013-11-02 20:02:00,60.3,54.8,29.90,NW,321,0.0,0.0,82,0.00,CLR,,0.12,WeatherDisplay:10.37,2013-11-03 00:02:00,
2013-11-02 20:07:00,60.0,54.5,29.90,NW,321,0.0,0.0,82,0.00,CLR,,0.12,WeatherDisplay:10.37,2013-11-03 00:07:00,
2013-11-02 20:12:00,59.7,54.2,29.90,NW,321,0.0,0.0,82,0.00,CLR,,0.12,WeatherDisplay:10.37,2013-11-03 00:12:00,
2013-11-02 20:17:00,59.4,54.2,29.90,NW,321,0.0,0.0,83,0.00,CLR,,0.12,WeatherDisplay:10.37,2013-11-03 00:17:00,
2013-11-02 20:22:00,59.0,53.8,29.91,NW,321,0.0,0.0,83,0.00,CLR,,0.12,WeatherDisplay:10.37,2013-11-03 00:22:00,
2013-11-02 20:27:00,59.0,53.8,29.91,NW,321,0.0,0.0,83,0.00,CLR,,0.12,WeatherDisplay:10.37,2013-11-03 00:27:00,
2013-11-02 20:32:00,58.9,53.7,29.91,NW,321,0.0,0.0,83,0.00,CLR,,0.12,WeatherDisplay:10.37,2013-11-03 00:32:00,
2013-11-02 20:37:00,58.6,54.1,29.92,NW,321,0.0,0.0,85,0.00,CLR,,0.12,WeatherDisplay:10.37,2013-11-03 00:37:00,
2013-11-02 20:42:00,58.4,53.9,29.92,NW,321,0.0,0.0,85,0.00,CLR,,0.12,WeatherDisplay:10.37,2013-11-03 00:42:00,
2013-11-02 20:47:00,58.2,54.0,29.92,NW,321,0.0,0.0,86,0.00,CLR,,0.12,WeatherDisplay:10.37,2013-11-03 00:47:00,
2013-11-02 20:52:00,58.0,53.8,29.92,NW,321,0.0,0.0,86,0.00,CLR,,0.12,WeatherDisplay:10.37,2013-11-03 00:52:00,
2013-11-02 20:57:00,57.8,54.0,29.93,NW,321,0.0,0.0,87,0.00,CLR,,0.12,WeatherDisplay:10.37,2013-11-03 00:57:00,
2013-11-02 21:02:00,57.6,53.8,29.93,NW,321,0.0,0.0,87,0.00,CLR,,0.12,WeatherDisplay:10.37,2013-11-03 01:02:00,
2013-11-02 21:07:00,57.4,53.6,29.93,NW,321,0.0,0.0,87,0.00,CLR,,0.12,WeatherDisplay:10.37,2013-11-03 01:07:00,
2013-11-02 21:12:00,57.2,53.4,29.93,NW,321,0.0,0.0,87,0.00,CLR,,0.12,WeatherDisplay:10.37,2013-11-03 01:12:00,
2013-11-02 21:17:00,57.1,53.3,29.93,NW,321,0.0,0.0,87,0.00,CLR,,0.12,WeatherDisplay:10.37,2013-11-03 01:17:00,
2013-11-02 21:22:00,56.9,53.4,29.94,NW,321,0.0,0.0,88,0.00,CLR,,0.12,WeatherDisplay:10.37,2013-11-03 01:22:00,
2013-11-02 21:27:00,56.7,53.2,29.94,NW,321,0.0,0.0,88,0.00,CLR,,0.12,WeatherDisplay:10.37,2013-11-03 01:27:00,
2013-11-02 21:32:00,56.6,53.1,29.94,NW,321,0.0,0.0,88,0.00,CLR,,0.12,WeatherDisplay:10.37,2013-11-03 01:32:00,
2013-11-02 21:37:00,56.4,52.9,29.94,NW,321,0.0,0.0,88,0.00,CLR,,0.12,WeatherDisplay:10.37,2013-11-03 01:37:00,
2013-11-02 21:42:00,56.2,52.7,29.94,NW,321,0.0,0.0,88,0.00,CLR,,0.12,WeatherDisplay:10.37,2013-11-03 01:42:00,
2013-11-02 21:47:00,56.1,52.6,29.94,NW,321,0.0,0.0,88,0.00,CLR,,0.12,WeatherDisplay:10.37,2013-11-03 01:47:00,
2013-11-02 21:52:00,55.9,52.7,29.94,NW,321,0.0,0.0,89,0.00,CLR,,0.12,WeatherDisplay:10.37,2013-11-03 01:52:00,
2013-11-02 21:57:00,55.8,52.6,29.95,NW,321,0.0,0.0,89,0.00,CLR,,0.12,WeatherDisplay:10.37,2013-11-03 01:57:00,
2013-11-02 22:02:00,55.7,52.5,29.95,NW,321,0.0,0.0,89,0.00,CLR,,0.12,WeatherDisplay:10.37,2013-11-03 02:02:00,
2013-11-02 22:07:00,55.6,52.4,29.95,NW,321,0.0,0.0,89,0.00,CLR,,0.12,WeatherDisplay:10.37,2013-11-03 02:07:00,
2013-11-02 22:12:00,55.5,52.3,29.95,NW,321,0.0,0.0,89,0.00,CLR,,0.12,WeatherDisplay:10.37,2013-11-03 02:12:00,
2013-11-02 22:17:00,55.4,53.1,29.96,NW,321,0.0,0.0,92,0.00,CLR,,0.12,WeatherDisplay:10.37,2013-11-03 02:17:00,
2013-11-02 22:22:00,55.3,52.1,29.96,NW,321,0.0,0.0,89,0.00,CLR,,0.12,WeatherDisplay:10.37,2013-11-03 02:22:00,
2013-11-02 22:27:00,55.3,52.4,29.96,NW,321,0.0,0.0,90,0.00,CLR,,0.12,WeatherDisplay:10.37,2013-11-03 02:27:00,
2013-11-02 22:32:00,55.2,52.3,29.96,NW,321,0.0,0.0,90,0.00,CLR,,0.12,WeatherDisplay:10.37,2013-11-03 02:32:00,
2013-11-02 22:37:00,55.2,52.3,29.96,NW,321,0.0,0.0,90,0.00,CLR,,0.12,WeatherDisplay:10.37,2013-11-03 02:37:00,
2013-11-02 22:42:00,55.1,52.2,29.96,NW,321,0.0,0.0,90,0.00,CLR,,0.12,WeatherDisplay:10.37,2013-11-03 02:42:00,
2013-11-02 22:47:00,55.0,52.4,29.96,NW,321,0.0,0.0,91,0.00,CLR,,0.12,WeatherDisplay:10.37,2013-11-03 02:47:00,
2013-11-02 22:52:00,55.0,52.4,29.97,NW,321,0.0,0.0,91,0.00,CLR,,0.12,WeatherDisplay:10.37,2013-11-03 02:52:00,
2013-11-02 22:57:00,54.9,52.3,29.97,NW,321,0.0,0.0,91,0.00,CLR,,0.12,WeatherDisplay:10.37,2013-11-03 02:57:00,
2013-11-02 23:02:00,54.8,52.2,29.97,NW,321,0.0,0.0,91,0.00,CLR,,0.12,WeatherDisplay:10.37,2013-11-03 03:02:00,
2013-11-02 23:07:00,54.7,52.1,29.97,NW,321,0.0,0.0,91,0.00,CLR,,0.12,WeatherDisplay:10.37,2013-11-03 03:07:00,
2013-11-02 23:12:00,54.6,52.0,29.97,NW,321,0.0,0.0,91,0.00,CLR,,0.12,WeatherDisplay:10.37,2013-11-03 03:12:00,
2013-11-02 23:17:00,54.5,51.9,29.97,NW,321,0.0,0.0,91,0.00,CLR,,0.12,WeatherDisplay:10.37,2013-11-03 03:17:00,
2013-11-02 23:22:00,54.4,51.8,29.97,NW,321,0.0,0.0,91,0.00,CLR,,0.12,WeatherDisplay:10.37,2013-11-03 03:22:00,
2013-11-02 23:27:00,54.4,51.8,29.97,NW,321,0.0,0.0,91,0.00,CLR,,0.12,WeatherDisplay:10.37,2013-11-03 03:27:00,
2013-11-02 23:32:00,54.3,51.7,29.97,NW,321,0.0,0.0,91,0.00,CLR,,0.12,WeatherDisplay:10.37,2013-11-03 03:32:00,
2013-11-02 23:37:00,54.2,51.6,29.97,NW,321,0.0,0.0,91,0.00,CLR,,0.12,WeatherDisplay:10.37,2013-11-03 03:37:00,
2013-11-02 23:42:00,54.1,51.5,29.97,NW,321,0.0,0.0,91,0.00,CLR,,0.12,WeatherDisplay:10.37,2013-11-03 03:42:00,
2013-11-02 23:47:00,54.1,51.5,29.97,NW,321,0.0,0.0,91,0.00,CLR,,0.12,WeatherDisplay:10.37,2013-11-03 03:47:00,
2013-11-02 23:52:00,54.1,51.8,29.97,NW,321,0.0,0.0,92,0.00,CLR,,0.12,WeatherDisplay:10.37,2013-11-03 03:52:00,
2013-11-02 23:57:00,54.1,51.8,29.97,NW,321,0.0,0.0,92,0.00,CLR,,0.12,WeatherDisplay:10.37,2013-11-03 03:57:00,